Annadale, South Africa
Current Conditions -  °F | °C
As of 4:00 PM on Saturday 25 Oct 2014 (Local Time) from FAPP Reporting Station
Few Clouds Few Clouds  
Wind Chill: 72°   Ceiling: Unl
Heat Index: 72°   Visibility: 6mi
Dew Point: 50°   Wind: 15mph
Humidity: 46%   Direction: 60°ENE
Pressure: 30.12"   Gusts: NA
Location:  23.88°S, 29.45°E
Report Text: FAPP 251400Z 06013KT 9999 FEW045 22/10 Q1020 NOSIG
Loading
Personal Weather Stations






























Interactive Weather Map
Tropical Storm Tracking
New forecast layout! Learn more

10-Day Weather Forecast

Advertisements
Track Severe Weather on mobile